Time;durP1;ratioP1;P1;durP2;ratioP2;P2;SDS_P1;SDS_P2;PMS_P1;PMS_P2;Temp;Humidity;BMP_temperature;BMP_pressure;BME280_temperature;BME280_humidity;BME280_pressure;Samples;Min_cycle;Max_cycle;Signal;HPM_P1;HPM_P2
2022/02/10 00:21:46;;;;;;;13.73;7.13;;;9.90;99.90;;;;;;5091298;28;20522;-65
2022/02/10 00:24:39;;;;;;;16.57;7.70;;;9.90;99.90;;;;;;5090983;28;20430;-66
2022/02/10 00:35:23;;;;;;;20.97;9.00;;;9.60;99.90;;;;;;5090964;28;20503;-65
2022/02/10 00:37:57;;;;;;;19.13;9.60;;;9.60;99.90;;;;;;5090879;28;20444;-65
2022/02/10 00:40:26;;;;;;;16.57;10.93;;;9.50;99.90;;;;;;5090730;28;20780;-65
2022/02/10 00:42:54;;;;;;;13.87;9.20;;;9.50;99.90;;;;;;5090333;28;20502;-66
2022/02/10 00:45:21;;;;;;;18.23;10.30;;;9.50;99.90;;;;;;5090595;28;20498;-66
2022/02/10 00:47:54;;;;;;;13.37;9.83;;;9.50;99.90;;;;;;5090543;28;20439;-66
2022/02/10 00:50:22;;;;;;;18.87;9.70;;;9.40;99.90;;;;;;5090266;28;20566;-66
2022/02/10 00:52:51;;;;;;;18.87;9.90;;;9.40;99.90;;;;;;5090136;28;20474;-65
2022/02/10 00:55:24;;;;;;;19.57;10.93;;;9.30;99.90;;;;;;5090193;28;20489;-65
2022/02/10 00:57:51;;;;;;;20.13;10.73;;;9.20;99.90;;;;;;5090343;28;20519;-66
2022/02/10 01:11:46;;;;;;;19.97;11.77;;;8.90;99.90;;;;;;5089880;28;20518;-66
2022/02/10 01:30:40;;;;;;;19.83;11.30;;;8.90;99.90;;;;;;5048670;28;20488;-72
2022/02/10 01:33:09;;;;;;;25.93;12.83;;;8.90;99.90;;;;;;5035541;28;20516;-72
2022/02/10 01:35:36;;;;;;;22.90;12.67;;;8.90;99.90;;;;;;5036028;28;20537;-72
2022/02/10 01:38:03;;;;;;;27.57;12.80;;;8.90;99.90;;;;;;5035728;28;20451;-72
2022/02/10 01:40:48;;;;;;;33.90;12.10;;;8.90;99.90;;;;;;5036036;28;20426;-72
2022/02/10 01:57:44;;;;;;;28.33;13.93;;;8.90;99.90;;;;;;5035903;28;20830;-72
2022/02/10 02:05:33;;;;;;;21.57;12.77;;;9.00;99.90;;;;;;5035511;28;20410;-72
2022/02/10 02:08:01;;;;;;;18.60;12.27;;;9.00;99.90;;;;;;5035239;28;20975;-72
2022/02/10 02:10:28;;;;;;;21.47;13.20;;;8.90;99.90;;;;;;5035075;28;20883;-72
2022/02/10 02:12:55;;;;;;;22.90;13.47;;;8.90;99.90;;;;;;5035261;28;20482;-72
2022/02/10 02:15:25;;;;;;;20.13;11.83;;;8.90;99.90;;;;;;5035231;28;20442;-72
2022/02/10 02:17:51;;;;;;;20.50;12.60;;;8.90;99.90;;;;;;5034975;28;20971;-72
2022/02/10 02:20:18;;;;;;;23.20;12.67;;;8.90;99.90;;;;;;5035219;28;20450;-72
2022/02/10 02:22:46;;;;;;;19.83;11.73;;;8.90;99.90;;;;;;5034119;28;20863;-72
2022/02/10 02:25:14;;;;;;;20.93;13.67;;;9.00;99.90;;;;;;5036082;28;20442;-72
2022/02/10 02:27:44;;;;;;;18.30;12.03;;;9.00;99.90;;;;;;5035097;28;20442;-72
2022/02/10 02:30:20;;;;;;;27.90;13.07;;;9.00;99.90;;;;;;5035354;28;20474;-72
2022/02/10 02:33:09;;;;;;;21.23;11.77;;;9.00;99.90;;;;;;5034895;28;20553;-72
2022/02/10 02:35:48;;;;;;;20.17;12.60;;;9.00;99.90;;;;;;5034438;28;20446;-72
2022/02/10 02:38:37;;;;;;;25.83;13.10;;;9.00;99.90;;;;;;5034743;28;20442;-72
2022/02/10 03:05:55;;;;;;;16.53;10.20;;;8.60;99.90;;;;;;5034099;28;20410;-72
2022/02/10 03:08:23;;;;;;;17.27;11.00;;;8.60;99.90;;;;;;5034531;28;20437;-72
2022/02/10 03:11:00;;;;;;;13.90;9.80;;;8.60;99.90;;;;;;5034089;28;20478;-72
2022/02/10 03:13:31;;;;;;;14.17;9.23;;;8.50;99.90;;;;;;5034124;28;20473;-72
2022/02/10 03:16:15;;;;;;;13.13;9.83;;;8.50;99.90;;;;;;5034177;28;20516;-72
2022/02/10 03:18:49;;;;;;;23.43;9.70;;;8.50;99.90;;;;;;5034004;28;20442;-72
2022/02/10 03:21:49;;;;;;;12.57;10.33;;;8.50;99.90;;;;;;5033860;28;20458;-72
2022/02/10 04:00:30;;;;;;;21.70;8.90;;;8.10;99.90;;;;;;5013515;28;20894;-71
2022/02/10 04:06:23;;;;;;;15.53;8.50;;;8.10;99.90;;;;;;5024068;28;20457;-71
2022/02/10 04:12:02;;;;;;;14.33;7.70;;;8.10;99.90;;;;;;5020006;28;20992;-72
2022/02/10 04:14:34;;;;;;;16.90;7.43;;;8.10;99.90;;;;;;5033085;28;20469;-71
2022/02/10 04:17:21;;;;;;;13.50;8.90;;;8.10;99.90;;;;;;5033157;28;20525;-71
2022/02/10 04:20:07;;;;;;;12.90;7.20;;;8.10;99.90;;;;;;5033336;28;20457;-72
2022/02/10 04:22:44;;;;;;;13.20;7.43;;;8.10;99.90;;;;;;5033100;28;20585;-71
2022/02/10 04:25:33;;;;;;;14.67;7.53;;;8.00;99.90;;;;;;5033438;28;20427;-72
2022/02/10 04:28:13;;;;;;;13.53;7.10;;;8.00;99.90;;;;;;5033402;28;20443;-71
2022/02/10 04:31:07;;;;;;;10.50;6.60;;;8.00;99.90;;;;;;5033262;28;20473;-72
2022/02/10 04:40:09;;;;;;;11.60;6.33;;;8.00;99.90;;;;;;5032935;28;20406;-72
2022/02/10 04:43:07;;;;;;;14.80;6.70;;;8.00;99.90;;;;;;5032389;28;20937;-71
2022/02/10 04:57:05;;;;;;;12.23;6.77;;;8.00;99.90;;;;;;5030387;28;20476;-72
2022/02/10 04:59:56;;;;;;;21.03;8.03;;;8.00;99.90;;;;;;5032782;28;20435;-71
2022/02/10 05:16:39;;;;;;;18.80;7.93;;;8.20;99.90;;;;;;5036002;28;20410;-72
2022/02/10 05:22:16;;;;;;;22.00;7.00;;;8.20;99.90;;;;;;5036734;28;20464;-72
2022/02/10 05:31:24;;;;;;;15.57;7.30;;;8.20;99.90;;;;;;5035875;28;20549;-72
2022/02/10 05:33:24;;;;;;;15.97;7.10;;;8.30;99.90;;;;;;5035621;28;20453;-71
2022/02/10 05:35:55;;;;;;;13.70;7.30;;;8.20;99.90;;;;;;5036496;28;20474;-71
2022/02/10 05:38:27;;;;;;;22.87;8.10;;;8.20;99.90;;;;;;5036105;28;20450;-72
2022/02/10 05:41:46;;;;;;;22.07;7.30;;;8.30;99.90;;;;;;5036021;28;20500;-71
2022/02/10 05:44:22;;;;;;;19.00;6.70;;;8.30;99.90;;;;;;5035439;28;20467;-72
2022/02/10 05:47:09;;;;;;;15.57;8.00;;;8.30;99.90;;;;;;5035593;28;20905;-72
2022/02/10 05:55:35;;;;;;;21.63;8.40;;;8.40;99.90;;;;;;5014027;28;20436;-71
2022/02/10 05:58:09;;;;;;;17.37;8.07;;;8.40;99.90;;;;;;5028685;28;20450;-71
2022/02/10 06:47:54;;;;;;;10.80;7.90;;;8.10;99.90;;;;;;5034889;28;20402;-73
2022/02/10 06:53:19;;;;;;;12.50;7.77;;;8.00;99.90;;;;;;5030573;28;20512;-72
2022/02/10 07:09:59;;;;;;;12.97;9.77;;;7.50;99.90;;;;;;5029528;28;20478;-68
2022/02/10 07:12:51;;;;;;;12.97;7.83;;;7.50;99.90;;;;;;5034310;28;20482;-68
2022/02/10 08:00:00;;;;;;;19.00;13.00;;;7.70;99.90;;;;;;5033696;28;20414;-70
2022/02/10 08:55:08;;;;;;;16.97;12.87;;;8.30;99.90;;;;;;5037425;28;20537;-70
2022/02/10 08:57:51;;;;;;;16.50;12.87;;;8.30;99.90;;;;;;5037270;28;20436;-71
2022/02/10 09:00:59;;;;;;;17.97;12.53;;;8.40;99.90;;;;;;5037325;28;20488;-71
2022/02/10 09:03:42;;;;;;;21.27;12.53;;;8.40;99.90;;;;;;5036879;28;20492;-71
2022/02/10 09:06:20;;;;;;;23.57;13.77;;;8.40;99.90;;;;;;5036797;28;20470;-71
2022/02/10 09:20:09;;;;;;;18.17;12.20;;;8.60;99.90;;;;;;5014679;28;20439;-70
2022/02/10 09:58:39;;;;;;;16.23;9.23;;;9.00;99.90;;;;;;5036083;28;20452;-71
2022/02/10 10:01:16;;;;;;;16.27;9.63;;;9.00;99.90;;;;;;5035644;28;20411;-71
2022/02/10 10:03:54;;;;;;;15.20;9.30;;;8.80;99.90;;;;;;5035825;28;20470;-71
2022/02/10 10:06:41;;;;;;;13.23;10.07;;;8.80;99.90;;;;;;5035812;28;20427;-71
2022/02/10 10:09:22;;;;;;;14.07;9.33;;;8.80;99.90;;;;;;5035562;28;20932;-71
2022/02/10 10:12:25;;;;;;;11.77;8.33;;;8.90;99.90;;;;;;5035270;28;20995;-71
2022/02/10 10:15:19;;;;;;;13.13;8.90;;;8.90;99.90;;;;;;5035691;28;20513;-72
2022/02/10 10:21:15;;;;;;;12.40;8.70;;;9.10;99.90;;;;;;5035641;28;20410;-71
2022/02/10 10:24:12;;;;;;;12.67;9.20;;;9.30;99.90;;;;;;5035025;28;20492;-71
2022/02/10 10:52:22;;;;;;;17.63;11.53;;;8.80;99.90;;;;;;5024111;28;20524;-72
2022/02/10 10:54:57;;;;;;;19.13;14.20;;;8.80;99.90;;;;;;5034516;28;20897;-72
2022/02/10 10:57:29;;;;;;;21.53;12.03;;;8.70;99.90;;;;;;5034830;28;20438;-72
2022/02/10 11:00:25;;;;;;;18.13;12.50;;;8.80;99.90;;;;;;5034735;28;20465;-72
2022/02/10 11:23:41;;;;;;;20.10;14.30;;;8.50;99.90;;;;;;5034167;28;20401;-72
2022/02/10 11:36:57;;;;;;;21.90;14.20;;;8.70;99.90;;;;;;5034170;28;20406;-72
2022/02/10 11:39:38;;;;;;;21.83;13.70;;;8.70;99.90;;;;;;5033678;28;20921;-72
2022/02/10 11:59:41;;;;;;;17.83;12.60;;;8.60;99.90;;;;;;5033882;28;20466;-72
2022/02/10 12:01:18;;;;;;;15.83;12.70;;;8.90;99.90;;;;;;5033569;28;20518;-72
2022/02/10 13:31:40;;;;;;;8.70;7.90;;;9.20;99.90;;;;;;5056082;28;20953;-66
2022/02/10 14:10:32;;;;;;;4.70;4.30;;;10.10;99.90;;;;;;5055581;28;20516;-66
2022/02/10 14:13:00;;;;;;;5.30;4.13;;;10.00;99.90;;;;;;5054953;28;20508;-66
2022/02/10 14:15:38;;;;;;;7.13;5.23;;;10.10;99.90;;;;;;5055510;28;20438;-66
2022/02/10 14:18:14;;;;;;;6.63;5.27;;;10.20;99.90;;;;;;5055431;28;20533;-66
2022/02/10 14:20:56;;;;;;;6.23;4.90;;;10.30;99.90;;;;;;5055539;28;20516;-66
2022/02/10 14:26:30;;;;;;;8.37;4.97;;;10.50;99.90;;;;;;5055441;28;20398;-65
2022/02/10 14:28:57;;;;;;;6.37;5.60;;;10.40;99.90;;;;;;5055145;28;20438;-65
2022/02/10 14:31:23;;;;;;;6.23;5.63;;;10.50;99.90;;;;;;5055084;28;20445;-66
2022/02/10 14:33:52;;;;;;;5.93;5.33;;;10.60;99.90;;;;;;5055126;28;20473;-66
2022/02/10 14:36:25;;;;;;;5.37;4.87;;;10.60;99.90;;;;;;5055431;28;20461;-65
2022/02/10 14:38:58;;;;;;;4.17;3.60;;;10.30;99.90;;;;;;5055087;28;20433;-65
2022/02/10 14:41:50;;;;;;;7.13;3.23;;;10.10;99.90;;;;;;5054924;28;20437;-66
2022/02/10 15:17:44;;;;;;;5.90;5.10;;;9.90;99.90;;;;;;5054259;28;20864;-63
2022/02/10 15:51:07;;;;;;;16.07;11.67;;;9.40;99.90;;;;;;5053094;28;20912;-63
2022/02/10 15:54:02;;;;;;;12.13;10.67;;;9.30;99.90;;;;;;5053750;28;20481;-63
2022/02/10 15:56:49;;;;;;;15.10;11.23;;;9.20;99.90;;;;;;5053849;28;20452;-63
2022/02/10 16:18:43;;;;;;;10.97;9.87;;;9.00;99.90;;;;;;5053350;28;20411;-63
2022/02/10 16:21:10;;;;;;;13.00;10.50;;;9.10;99.90;;;;;;5053302;28;20430;-65
2022/02/10 16:23:37;;;;;;;11.77;10.13;;;9.10;99.90;;;;;;5052901;28;20485;-64
2022/02/10 16:26:13;;;;;;;10.90;9.80;;;9.10;99.90;;;;;;5052964;28;20787;-63
2022/02/10 16:28:44;;;;;;;12.47;10.70;;;9.10;99.90;;;;;;5053202;28;20441;-63
2022/02/10 16:31:12;;;;;;;11.90;10.67;;;9.10;99.90;;;;;;5053322;28;20487;-64
2022/02/10 16:33:42;;;;;;;12.63;11.13;;;9.10;99.90;;;;;;5052716;28;21000;-64
2022/02/10 16:36:16;;;;;;;13.20;11.47;;;9.10;99.90;;;;;;5053118;28;20445;-64
2022/02/10 16:38:43;;;;;;;14.17;11.20;;;9.10;99.90;;;;;;5053034;28;20429;-63
2022/02/10 16:41:11;;;;;;;10.83;9.30;;;9.10;99.90;;;;;;5052967;28;20789;-64
2022/02/10 16:43:37;;;;;;;11.17;9.97;;;9.10;99.90;;;;;;5053049;28;20826;-63
2022/02/10 16:46:08;;;;;;;10.50;9.40;;;9.20;99.90;;;;;;5053103;28;20449;-63
2022/02/10 16:48:35;;;;;;;10.73;8.77;;;9.20;99.90;;;;;;5053164;28;20499;-64
2022/02/10 16:51:02;;;;;;;11.00;8.93;;;9.10;99.90;;;;;;5052712;28;20441;-64
2022/02/10 16:53:29;;;;;;;9.10;8.20;;;9.10;99.90;;;;;;5052554;28;20864;-64
2022/02/10 16:56:01;;;;;;;11.93;8.90;;;9.20;99.90;;;;;;5052972;28;20450;-64
2022/02/10 16:58:34;;;;;;;7.80;7.00;;;9.20;99.90;;;;;;5053075;28;20437;-64
2022/02/10 17:03:55;;;;;;;11.57;9.10;;;9.20;99.90;;;;;;5034577;28;20563;-64
2022/02/10 17:15:08;;;;;;;11.43;9.67;;;9.50;99.90;;;;;;5056664;28;20958;-63
2022/02/10 17:17:55;;;;;;;10.23;9.17;;;9.40;99.90;;;;;;5056253;28;20528;-62
2022/02/10 17:20:40;;;;;;;11.87;9.80;;;9.40;99.90;;;;;;5056250;28;20904;-62
2022/02/10 17:26:02;;;;;;;10.70;9.00;;;9.40;99.90;;;;;;5056567;28;20405;-63
2022/02/10 17:28:29;;;;;;;9.73;8.70;;;9.40;99.90;;;;;;5056512;28;20465;-63
2022/02/10 17:34:03;;;;;;;11.20;9.60;;;9.20;99.90;;;;;;5051992;28;20592;-63
2022/02/10 17:36:36;;;;;;;10.87;8.67;;;9.10;99.90;;;;;;5055889;28;20438;-63
2022/02/10 17:42:27;;;;;;;11.67;7.00;;;9.00;99.90;;;;;;5031888;28;20596;-62
2022/02/10 17:45:08;;;;;;;9.10;5.83;;;9.00;99.90;;;;;;5055991;28;20527;-62
2022/02/10 17:53:25;;;;;;;8.47;6.07;;;8.80;99.90;;;;;;5013827;28;20478;-62
2022/02/10 17:55:52;;;;;;;9.77;6.93;;;8.80;99.90;;;;;;5013933;28;20522;-62
2022/02/10 17:58:22;;;;;;;10.93;6.33;;;8.80;99.90;;;;;;5034329;28;20507;-62
2022/02/10 18:00:49;;;;;;;9.20;7.27;;;8.80;99.90;;;;;;5056215;28;20485;-62
2022/02/10 18:03:17;;;;;;;11.73;8.03;;;8.80;99.90;;;;;;5056170;28;20472;-62
2022/02/10 18:06:11;;;;;;;12.60;7.30;;;8.80;99.90;;;;;;5055959;28;20530;-62
2022/02/10 18:08:45;;;;;;;10.50;6.93;;;8.80;99.90;;;;;;5055946;28;20450;-62
2022/02/10 18:13:57;;;;;;;10.10;8.13;;;8.70;99.90;;;;;;5034546;28;20485;-62
2022/02/10 18:16:29;;;;;;;14.23;7.33;;;8.70;99.90;;;;;;5055963;28;20453;-62
2022/02/10 18:19:01;;;;;;;12.40;7.87;;;8.60;99.90;;;;;;5055641;28;20430;-62
2022/02/10 18:21:48;;;;;;;10.70;7.90;;;8.60;99.90;;;;;;5055503;28;20442;-62
2022/02/10 18:24:43;;;;;;;10.33;8.17;;;8.60;99.90;;;;;;5055280;28;20477;-62
2022/02/10 18:27:20;;;;;;;11.97;8.53;;;8.60;99.90;;;;;;5055473;28;20437;-62
2022/02/10 18:30:12;;;;;;;16.00;7.27;;;8.50;99.90;;;;;;5055684;28;20430;-61
2022/02/10 18:54:28;;;;;;;8.50;6.30;;;8.20;99.90;;;;;;5055702;28;20409;-62
2022/02/10 19:09:06;;;;;;;6.27;5.67;;;8.20;99.90;;;;;;5055181;28;20413;-62
2022/02/10 19:11:34;;;;;;;6.57;4.37;;;8.20;99.90;;;;;;5055082;28;20425;-63
2022/02/10 19:14:05;;;;;;;5.83;4.60;;;8.10;99.90;;;;;;5054590;28;20496;-63
2022/02/10 19:16:31;;;;;;;5.90;4.10;;;7.90;99.90;;;;;;5054795;28;20496;-63
2022/02/10 19:18:58;;;;;;;3.87;2.40;;;7.70;99.90;;;;;;5054222;28;20944;-63
2022/02/10 19:21:25;;;;;;;3.10;2.10;;;7.70;99.90;;;;;;5054441;28;20449;-63
2022/02/10 19:23:51;;;;;;;3.70;2.00;;;7.60;99.90;;;;;;5071897;22;20827;-74
2022/02/10 19:26:18;;;;;;;3.03;1.83;;;7.50;99.90;;;;;;5033157;28;20469;-73
2022/02/10 19:28:45;;;;;;;2.73;1.73;;;7.50;99.90;;;;;;5034032;28;20431;-75
2022/02/10 19:31:17;;;;;;;2.30;1.37;;;7.50;99.90;;;;;;5034314;28;20426;-75
2022/02/10 19:33:44;;;;;;;2.73;1.40;;;7.50;99.90;;;;;;5033925;28;20485;-75
2022/02/10 19:36:11;;;;;;;2.10;1.20;;;7.50;99.90;;;;;;5034002;28;20450;-75
2022/02/10 19:38:37;;;;;;;2.00;1.70;;;7.50;99.90;;;;;;5033790;28;20439;-75
2022/02/10 19:41:04;;;;;;;1.43;1.30;;;7.60;99.90;;;;;;5034041;28;20456;-72
2022/02/10 19:43:31;;;;;;;2.93;1.37;;;7.50;99.90;;;;;;5033901;28;20462;-73
2022/02/10 19:45:58;;;;;;;2.73;1.63;;;7.40;99.90;;;;;;5033555;28;20451;-72
2022/02/10 19:48:26;;;;;;;3.87;2.47;;;7.40;99.90;;;;;;5033966;28;20455;-74
2022/02/10 19:50:54;;;;;;;2.83;1.40;;;7.30;99.90;;;;;;5033603;28;20949;-72
2022/02/10 19:53:22;;;;;;;3.63;1.30;;;7.30;99.90;;;;;;5033479;28;20467;-71
2022/02/10 19:55:51;;;;;;;3.03;1.70;;;7.20;99.90;;;;;;5033739;28;20477;-71
2022/02/10 19:58:21;;;;;;;2.07;1.83;;;7.20;99.90;;;;;;5033773;28;20446;-71
2022/02/10 20:00:49;;;;;;;2.40;1.67;;;7.10;99.90;;;;;;5033772;28;20431;-71
2022/02/10 20:03:18;;;;;;;3.10;1.90;;;7.00;99.90;;;;;;5034461;28;20819;-71
2022/02/10 20:05:49;;;;;;;2.07;1.87;;;6.90;99.90;;;;;;5033816;28;20454;-71
2022/02/10 20:08:18;;;;;;;2.60;1.73;;;6.90;99.90;;;;;;5033713;28;20434;-71
2022/02/10 20:10:45;;;;;;;3.73;1.73;;;6.80;99.90;;;;;;5033665;28;20526;-71
2022/02/10 20:13:16;;;;;;;3.40;1.73;;;6.80;99.90;;;;;;5033417;28;20479;-71
2022/02/10 20:15:43;;;;;;;3.50;2.00;;;6.70;99.90;;;;;;5033221;28;20430;-72
2022/02/10 20:18:12;;;;;;;2.60;1.50;;;6.70;99.90;;;;;;5033517;28;20447;-72
2022/02/10 20:20:41;;;;;;;3.10;1.77;;;6.70;99.90;;;;;;5033720;28;20451;-72
2022/02/10 20:23:10;;;;;;;2.00;1.13;;;6.70;99.90;;;;;;5033389;28;20554;-71
2022/02/10 20:25:37;;;;;;;2.07;1.10;;;6.60;99.90;;;;;;5034562;28;20442;-71
2022/02/10 20:28:06;;;;;;;3.37;1.23;;;6.30;99.90;;;;;;5033527;28;20446;-71
2022/02/10 20:30:33;;;;;;;3.27;1.20;;;6.20;99.90;;;;;;5033436;28;20458;-71
2022/02/10 20:33:00;;;;;;;2.73;1.30;;;6.20;99.90;;;;;;5033366;28;20481;-71
2022/02/10 20:35:27;;;;;;;4.73;1.23;;;6.20;99.90;;;;;;5032904;28;20841;-71
2022/02/10 20:37:59;;;;;;;4.03;1.53;;;6.10;99.90;;;;;;5036511;28;20457;-71
2022/02/10 20:40:28;;;;;;;1.40;1.20;;;6.00;99.90;;;;;;5037601;28;20431;-71
2022/02/10 20:43:02;;;;;;;3.53;1.00;;;6.00;99.90;;;;;;5037526;28;20457;-71
2022/02/10 20:45:28;;;;;;;3.63;1.00;;;6.00;99.90;;;;;;5037359;28;20477;-71
2022/02/10 20:47:55;;;;;;;1.93;0.63;;;6.00;99.90;;;;;;5037768;28;20817;-71
2022/02/10 20:50:22;;;;;;;1.10;1.00;;;6.00;99.90;;;;;;5038833;28;20465;-70
2022/02/10 20:52:49;;;;;;;4.93;1.20;;;5.80;99.90;;;;;;5038855;28;20472;-72
2022/02/10 20:55:16;;;;;;;1.90;0.80;;;5.90;99.90;;;;;;5037575;28;20466;-70
2022/02/10 20:57:44;;;;;;;0.73;0.70;;;5.90;99.90;;;;;;5037530;28;20442;-71
2022/02/10 21:00:13;;;;;;;1.77;0.73;;;5.90;99.90;;;;;;5037539;28;20434;-71
2022/02/10 21:02:44;;;;;;;1.63;1.00;;;6.00;99.90;;;;;;5037253;28;20453;-71
2022/02/10 21:05:24;;;;;;;1.40;0.73;;;6.00;99.90;;;;;;5036910;28;20466;-71
2022/02/10 21:07:59;;;;;;;2.70;0.80;;;5.90;99.90;;;;;;5037092;28;20457;-71
2022/02/10 21:10:28;;;;;;;1.53;0.80;;;5.90;99.90;;;;;;5038172;28;20438;-72
2022/02/10 21:12:56;;;;;;;1.93;0.90;;;5.90;99.90;;;;;;5038053;28;20504;-72
2022/02/10 21:15:28;;;;;;;0.93;0.90;;;5.90;99.90;;;;;;5037545;28;20470;-72
2022/02/10 21:18:00;;;;;;;0.80;0.60;;;5.90;99.90;;;;;;5037381;28;20439;-72
2022/02/10 21:20:29;;;;;;;2.57;0.77;;;5.80;99.90;;;;;;5037732;28;20445;-73
2022/02/10 21:23:04;;;;;;;1.90;0.70;;;5.80;99.90;;;;;;5037591;28;20431;-72
2022/02/10 21:25:35;;;;;;;1.20;1.10;;;5.80;99.90;;;;;;5037132;28;20454;-73
2022/02/10 21:28:13;;;;;;;1.57;0.80;;;5.70;99.90;;;;;;5037648;28;20489;-73
2022/02/10 21:30:40;;;;;;;3.70;0.90;;;5.80;99.90;;;;;;5037172;28;20435;-73
2022/02/10 21:33:12;;;;;;;1.10;0.90;;;5.80;99.90;;;;;;5036893;28;20422;-72
2022/02/10 21:35:57;;;;;;;2.17;1.10;;;5.90;99.90;;;;;;5037169;28;20446;-72
2022/02/10 21:38:26;;;;;;;3.90;1.20;;;5.80;99.90;;;;;;5037212;28;20430;-72
2022/02/10 21:41:21;;;;;;;1.83;1.13;;;5.80;99.90;;;;;;5036882;28;20441;-73
2022/02/10 21:55:01;;;;;;;4.90;2.10;;;5.80;99.90;;;;;;5035868;28;21031;-72
2022/02/10 22:00:34;;;;;;;1.90;1.57;;;5.80;99.90;;;;;;5013714;28;20423;-72
2022/02/10 22:09:01;;;;;;;2.50;1.60;;;5.70;99.90;;;;;;5091814;27;20498;-72
2022/02/10 22:11:35;;;;;;;4.20;1.67;;;5.60;99.90;;;;;;5090727;28;20502;-72
2022/02/10 22:17:02;;;;;;;2.37;1.50;;;5.70;99.90;;;;;;5091074;28;20761;-73
2022/02/10 22:19:37;;;;;;;2.80;1.53;;;5.70;99.90;;;;;;5091099;28;20841;-73
2022/02/10 22:22:09;;;;;;;1.50;1.40;;;5.80;99.90;;;;;;5091014;28;20434;-72
2022/02/10 22:24:37;;;;;;;3.37;1.53;;;5.80;99.90;;;;;;5090896;28;20470;-72
2022/02/10 22:27:05;;;;;;;1.47;1.37;;;5.70;99.90;;;;;;5090466;28;20472;-72
2022/02/10 22:29:36;;;;;;;1.77;1.43;;;5.70;99.90;;;;;;5090914;28;20539;-72
2022/02/10 22:32:14;;;;;;;3.80;1.10;;;5.70;99.90;;;;;;5090886;28;20847;-72
2022/02/10 22:34:42;;;;;;;2.10;1.10;;;5.70;99.90;;;;;;5090719;28;20463;-72
2022/02/10 22:37:12;;;;;;;2.43;1.13;;;5.70;99.90;;;;;;5090779;28;20459;-72
2022/02/10 22:39:44;;;;;;;2.20;1.30;;;5.70;99.90;;;;;;5090577;28;20439;-72
2022/02/10 22:42:12;;;;;;;1.87;1.40;;;5.80;99.90;;;;;;5090520;28;20432;-72
2022/02/10 22:44:40;;;;;;;3.20;1.43;;;5.70;99.90;;;;;;5090445;28;20464;-72
2022/02/10 22:47:08;;;;;;;2.70;1.07;;;5.70;99.90;;;;;;5090368;28;20487;-72
2022/02/10 22:49:35;;;;;;;3.53;1.40;;;5.70;99.90;;;;;;5090613;28;20446;-72
2022/02/10 22:52:03;;;;;;;2.50;1.53;;;5.60;99.90;;;;;;5090385;28;20447;-72
2022/02/10 22:54:30;;;;;;;1.10;1.00;;;5.60;99.90;;;;;;5090203;28;20472;-71
2022/02/10 22:56:59;;;;;;;2.30;2.10;;;5.70;99.90;;;;;;5090125;28;20509;-73
2022/02/10 22:59:26;;;;;;;3.03;1.83;;;5.70;99.90;;;;;;5090152;28;20444;-72
2022/02/10 23:01:55;;;;;;;3.00;2.50;;;5.70;99.90;;;;;;5089995;28;20452;-72
2022/02/10 23:04:21;;;;;;;3.40;2.70;;;5.70;99.90;;;;;;5089848;28;20474;-72
2022/02/10 23:06:53;;;;;;;3.40;2.50;;;5.80;99.90;;;;;;5089667;28;20491;-72
2022/02/10 23:09:30;;;;;;;3.17;2.60;;;5.80;99.90;;;;;;5089611;28;20475;-72
2022/02/10 23:11:59;;;;;;;3.83;2.47;;;5.80;99.90;;;;;;5089921;28;20499;-72
2022/02/10 23:14:26;;;;;;;5.87;3.50;;;5.80;99.90;;;;;;5089765;28;20479;-72
2022/02/10 23:16:53;;;;;;;7.60;3.80;;;5.90;99.90;;;;;;5089743;28;20443;-72
2022/02/10 23:19:21;;;;;;;3.70;3.30;;;5.80;99.90;;;;;;5079838;28;20455;-72
2022/02/10 23:21:47;;;;;;;3.10;2.80;;;5.90;99.90;;;;;;5076122;28;20479;-72
2022/02/10 23:24:14;;;;;;;5.00;3.57;;;5.90;99.90;;;;;;5075815;28;20966;-72
2022/02/10 23:26:41;;;;;;;5.40;3.40;;;5.70;99.90;;;;;;5076047;28;20476;-72
2022/02/10 23:29:10;;;;;;;4.80;3.87;;;5.60;99.90;;;;;;5076042;28;20457;-72
2022/02/10 23:31:37;;;;;;;5.80;3.63;;;5.70;99.90;;;;;;5076094;28;20448;-72
2022/02/10 23:34:04;;;;;;;4.30;3.90;;;5.60;99.90;;;;;;5075594;28;21021;-72
2022/02/10 23:36:45;;;;;;;4.83;4.33;;;5.60;99.90;;;;;;5075937;28;20444;-72
2022/02/10 23:39:18;;;;;;;3.83;3.40;;;5.60;99.90;;;;;;5075943;28;20888;-72
2022/02/10 23:42:01;;;;;;;4.50;3.70;;;5.60;99.90;;;;;;5076037;28;20433;-72
2022/02/10 23:44:32;;;;;;;4.20;3.80;;;5.50;99.90;;;;;;5076325;28;21013;-72
2022/02/10 23:47:01;;;;;;;5.70;3.40;;;5.50;99.90;;;;;;5075777;28;20534;-72
2022/02/10 23:49:30;;;;;;;6.13;3.50;;;5.50;99.90;;;;;;5076553;28;20543;-72
2022/02/10 23:52:00;;;;;;;5.77;3.67;;;5.50;99.90;;;;;;5075987;28;20432;-72
2022/02/10 23:54:29;;;;;;;5.83;4.00;;;5.50;99.90;;;;;;5075670;28;20807;-72
2022/02/10 23:57:01;;;;;;;4.97;3.87;;;5.40;99.90;;;;;;5075723;28;20774;-72
2022/02/10 23:59:42;;;;;;;3.63;3.33;;;5.30;99.90;;;;;;5075394;28;20908;-72
